Phoenix, Arizona
Traffic Map
Current Weather Conditions
Phoenix, Arizona
Scattered Clouds
Scattered Clouds
102°
Feels Like: 103°
Wind Chill: 102° Ceiling: Unl
Heat Index: 103° Visibility: 10mi
Dew Point: 60° Wind: 5mph
Humidity: 25% Direction: ° ()
Pressure: 29.96in Gusts: 0mph
Raw Report DataKPHX 272051Z VRB04KT 10SM SCT085 39/16 A2996 RMK AO2 SLP124 T03890156 58021
Traffic Incident Summary
Active as of:
Severity:
Category:
InformationThere was an issue retrieving the traffic information for this location. Please try a different location or try again shortly.
Advertisements
Track Severe Weather on mobile